createdAt,value
2022-10-05T00:01:31.605Z,101873.34
2022-10-05T00:04:19.219Z,101866.28
2022-10-05T00:06:56.155Z,101880.59
2022-10-05T00:09:23.419Z,101872.47
2022-10-05T00:11:51.439Z,101874.25
2022-10-05T00:14:33.339Z,101878.81
2022-10-05T00:17:02.147Z,101874.25
2022-10-05T00:19:35.071Z,101873.44
2022-10-05T00:22:16.727Z,101872.56
2022-10-05T00:24:45.407Z,101864.53
2022-10-05T00:27:23.325Z,101867.16
2022-10-05T00:29:52.837Z,101851.00
2022-10-05T00:32:19.961Z,101852.03
2022-10-05T00:34:47.449Z,101852.97
2022-10-05T00:37:14.963Z,101843.13
2022-10-05T00:39:42.841Z,101850.19
2022-10-05T00:42:32.745Z,101855.66
2022-10-05T00:45:07.458Z,101849.47
2022-10-05T00:47:46.640Z,101836.06
2022-10-05T00:50:45.568Z,101835.25
2022-10-05T00:53:43.946Z,101841.50
2022-10-05T00:56:54.628Z,101844.09
2022-10-05T01:00:16.100Z,101845.75
2022-10-05T01:03:13.031Z,101831.50
2022-10-05T01:06:22.538Z,101832.50
2022-10-05T01:09:15.670Z,101821.91
2022-10-05T01:11:58.012Z,101829.13
2022-10-05T01:14:46.217Z,101821.09
2022-10-05T01:17:26.234Z,101822.94
2022-10-05T01:20:39.517Z,101816.75
2022-10-05T01:23:58.777Z,101820.38
2022-10-05T01:27:09.676Z,101809.72
2022-10-05T01:29:56.917Z,101796.44
2022-10-05T01:32:53.113Z,101791.00
2022-10-05T01:35:47.221Z,101787.50
2022-10-05T01:38:40.151Z,101785.81
2022-10-05T01:41:28.132Z,101772.47
2022-10-05T01:44:16.408Z,101769.81
2022-10-05T01:47:13.500Z,101768.94
2022-10-05T01:50:12.346Z,101773.63
2022-10-05T01:52:51.090Z,101770.06
2022-10-05T01:56:03.324Z,101762.09
2022-10-05T01:58:51.652Z,101761.41
2022-10-05T02:01:42.708Z,101748.97
2022-10-05T02:05:00.380Z,101743.66
2022-10-05T02:07:58.448Z,101738.31
2022-10-05T02:10:38.283Z,101737.53
2022-10-05T02:13:24.959Z,101737.53
2022-10-05T02:16:05.408Z,101733.16
2022-10-05T02:18:56.838Z,101736.84
2022-10-05T02:21:25.135Z,101733.31
2022-10-05T02:23:57.483Z,101735.09
2022-10-05T02:26:26.167Z,101735.09
2022-10-05T02:28:59.511Z,101727.06
2022-10-05T02:31:43.377Z,101730.66
2022-10-05T02:34:29.968Z,101715.53
2022-10-05T02:37:25.224Z,101711.16
2022-10-05T02:40:57.238Z,101715.56
2022-10-05T02:43:53.912Z,101733.34
2022-10-05T02:46:36.626Z,101713.97
2022-10-05T02:49:26.399Z,101713.09
2022-10-05T02:52:08.492Z,101707.72
2022-10-05T02:54:41.299Z,101697.06
2022-10-05T02:57:47.195Z,101693.63
2022-10-05T03:00:21.328Z,101694.50
2022-10-05T03:03:06.422Z,101711.34
2022-10-05T03:05:48.721Z,101704.34
2022-10-05T03:08:26.899Z,101708.88
2022-10-05T03:11:26.515Z,101708.03
2022-10-05T03:14:23.445Z,101696.34
2022-10-05T03:17:18.977Z,101708.13
2022-10-05T03:20:34.184Z,101699.06
2022-10-05T03:23:12.345Z,101708.91
2022-10-05T03:26:36.500Z,101702.69
2022-10-05T03:29:34.755Z,101713.34
2022-10-05T03:32:41.794Z,101706.13
2022-10-05T03:35:23.202Z,101712.38
2022-10-05T03:38:20.922Z,101707.00
2022-10-05T03:40:59.211Z,101716.75
2022-10-05T03:43:56.200Z,101701.53
2022-10-05T03:46:48.959Z,101704.28
2022-10-05T03:49:59.506Z,101711.34
2022-10-05T03:52:52.044Z,101710.50
2022-10-05T03:55:45.833Z,101710.50
2022-10-05T03:58:44.223Z,101711.34
2022-10-05T04:01:18.661Z,101707.78
2022-10-05T04:04:04.050Z,101700.66
2022-10-05T04:06:38.531Z,101700.56
2022-10-05T04:09:31.673Z,101690.69
2022-10-05T04:12:26.285Z,101679.97
2022-10-05T04:15:42.172Z,101684.41
2022-10-05T04:18:34.253Z,101681.81
2022-10-05T04:21:37.035Z,101680.06
2022-10-05T04:24:24.608Z,101688.09
2022-10-05T04:27:19.713Z,101685.47
2022-10-05T04:29:56.104Z,101681.88
2022-10-05T04:32:43.365Z,101682.75
2022-10-05T04:35:59.922Z,101661.31
2022-10-05T04:38:43.340Z,101669.41
2022-10-05T04:41:25.664Z,101669.41
2022-10-05T04:44:41.231Z,101656.88
2022-10-05T04:47:35.240Z,101656.06
2022-10-05T04:50:12.835Z,101655.81
2022-10-05T04:53:04.543Z,101651.63
2022-10-05T04:55:58.422Z,101655.19
2022-10-05T04:59:00.672Z,101666.78
2022-10-05T05:01:58.904Z,101654.25
2022-10-05T05:04:37.733Z,101648.94
2022-10-05T05:07:28.255Z,101649.88
2022-10-05T05:10:39.530Z,101646.31
2022-10-05T05:13:50.545Z,101640.91
2022-10-05T05:16:41.285Z,101635.56
2022-10-05T05:19:38.865Z,101631.19
2022-10-05T05:22:18.963Z,101638.28
2022-10-05T05:25:13.992Z,101632.88
2022-10-05T05:28:17.679Z,101631.13
2022-10-05T05:31:22.988Z,101629.31
2022-10-05T05:34:30.300Z,101628.44
2022-10-05T05:37:36.080Z,101628.56
2022-10-05T05:40:25.251Z,101629.56
2022-10-05T05:43:02.748Z,101634.00
2022-10-05T05:45:45.283Z,101634.00
2022-10-05T05:48:41.644Z,101634.00
2022-10-05T05:51:48.252Z,101630.50
2022-10-05T05:54:31.662Z,101635.81
2022-10-05T05:57:16.421Z,101637.59
2022-10-05T06:00:24.038Z,101631.38
2022-10-05T06:03:31.742Z,101627.75
2022-10-05T06:06:05.414Z,101626.00
2022-10-05T06:08:56.624Z,101631.38
2022-10-05T06:11:37.392Z,101633.13
2022-10-05T06:14:25.953Z,101628.63
2022-10-05T06:17:21.300Z,101636.72
2022-10-05T06:19:50.947Z,101634.84
2022-10-05T06:22:34.164Z,101637.47
2022-10-05T06:25:24.313Z,101634.94
2022-10-05T06:28:00.313Z,101630.44
2022-10-05T06:30:56.978Z,101627.75
2022-10-05T06:33:54.092Z,101634.00
2022-10-05T06:36:50.463Z,101629.44
2022-10-05T06:39:26.320Z,101629.47
2022-10-05T06:42:02.013Z,101637.41
2022-10-05T06:44:53.422Z,101639.97
2022-10-05T06:48:04.285Z,101641.78
2022-10-05T06:50:55.465Z,101643.59
2022-10-05T06:54:10.877Z,101631.06
2022-10-05T06:57:04.632Z,101633.66
2022-10-05T06:59:51.008Z,101650.59
2022-10-05T07:02:42.138Z,101641.53
2022-10-05T07:05:50.422Z,101648.66
2022-10-05T07:08:43.538Z,101638.81
2022-10-05T07:11:42.151Z,101640.50
2022-10-05T07:14:20.988Z,101639.50
2022-10-05T07:17:20.834Z,101644.72
2022-10-05T07:20:22.828Z,101639.31
2022-10-05T07:23:25.360Z,101640.97
2022-10-05T07:26:17.902Z,101632.00
2022-10-05T07:29:14.851Z,101636.47
2022-10-05T07:31:58.613Z,101639.03
2022-10-05T07:34:43.589Z,101641.72
2022-10-05T07:37:38.627Z,101638.22
2022-10-05T07:40:28.065Z,101636.38
2022-10-05T07:43:17.548Z,101646.22
2022-10-05T07:45:53.237Z,101646.16
2022-10-05T07:48:37.686Z,101648.88
2022-10-05T07:51:36.763Z,101640.78
2022-10-05T07:54:25.132Z,101638.03
2022-10-05T07:57:21.164Z,101635.28
2022-10-05T08:00:11.322Z,101629.97
2022-10-05T08:02:58.370Z,101635.22
2022-10-05T08:05:35.872Z,101628.94
2022-10-05T08:08:39.011Z,101632.59
2022-10-05T08:11:19.569Z,101625.31
2022-10-05T08:14:00.764Z,101627.94
2022-10-05T08:16:35.448Z,101618.91
2022-10-05T08:19:23.210Z,101620.72
2022-10-05T08:22:03.223Z,101622.53
2022-10-05T08:25:05.257Z,101615.22
2022-10-05T08:28:04.883Z,101615.97
2022-10-05T08:30:48.585Z,101615.97
2022-10-05T08:33:18.651Z,101612.38
2022-10-05T08:35:55.755Z,101604.22
2022-10-05T08:38:32.630Z,101604.22
2022-10-05T08:41:36.014Z,101602.19
2022-10-05T08:44:29.181Z,101606.63
2022-10-05T08:47:36.466Z,101606.50
2022-10-05T08:50:29.712Z,101602.63
2022-10-05T08:53:49.529Z,101599.19
2022-10-05T08:56:44.067Z,101596.41
2022-10-05T08:59:49.888Z,101597.16
2022-10-05T09:02:45.907Z,101595.53
2022-10-05T09:05:47.079Z,101595.34
2022-10-05T09:08:46.831Z,101600.59
2022-10-05T09:11:53.545Z,101591.50
2022-10-05T09:15:13.700Z,101594.13
2022-10-05T09:18:00.862Z,101586.91
2022-10-05T09:20:45.556Z,101591.22
2022-10-05T09:23:33.165Z,101581.03
2022-10-05T09:26:23.110Z,101573.91
2022-10-05T09:29:33.165Z,101579.13
2022-10-05T09:32:40.149Z,101586.78
2022-10-05T09:35:44.542Z,101573.31
2022-10-05T09:39:05.098Z,101575.63
2022-10-05T09:42:06.685Z,101568.13
2022-10-05T09:45:21.768Z,101563.44
2022-10-05T09:48:16.211Z,101565.88
2022-10-05T09:51:29.665Z,101562.19
2022-10-05T09:54:44.227Z,101559.31
2022-10-05T09:57:53.067Z,101562.25
2022-10-05T10:00:50.121Z,101553.25
2022-10-05T10:03:50.215Z,101538.56
2022-10-05T10:06:47.581Z,101541.81
2022-10-05T10:09:38.704Z,101530.69
2022-10-05T10:12:33.660Z,101536.44
2022-10-05T10:15:23.892Z,101541.72
2022-10-05T10:18:26.274Z,101526.19
2022-10-05T10:21:18.852Z,101526.25
2022-10-05T10:24:02.603Z,101529.59
2022-10-05T10:27:04.428Z,101529.13
2022-10-05T10:29:51.616Z,101533.69
2022-10-05T10:32:46.236Z,101524.13
2022-10-05T10:35:35.088Z,101524.53
2022-10-05T10:38:28.748Z,101522.94
2022-10-05T10:41:20.347Z,101517.56
2022-10-05T10:44:28.469Z,101521.94
2022-10-05T10:47:36.820Z,101519.25
2022-10-05T10:50:28.288Z,101512.44
2022-10-05T10:53:16.720Z,101518.56
2022-10-05T10:56:25.338Z,101508.16
2022-10-05T10:59:20.250Z,101508.47
2022-10-05T11:02:15.485Z,101511.09
2022-10-05T11:05:07.734Z,101504.84
2022-10-05T11:07:43.560Z,101503.19
2022-10-05T11:10:23.039Z,101511.16
2022-10-05T11:13:32.784Z,101502.38
2022-10-05T11:16:52.450Z,101512.25
2022-10-05T11:20:16.673Z,101503.03
2022-10-05T11:23:05.763Z,101502.16
2022-10-05T11:25:44.172Z,101507.28
2022-10-05T11:28:41.548Z,101495.66
2022-10-05T11:31:33.924Z,101491.91
2022-10-05T11:34:28.382Z,101493.56
2022-10-05T11:37:23.211Z,101484.38
2022-10-05T11:40:31.395Z,101479.72
2022-10-05T11:43:41.627Z,101485.84
2022-10-05T11:46:16.789Z,101477.53
2022-10-05T11:49:04.976Z,101478.91
2022-10-05T11:51:37.884Z,101472.53
2022-10-05T11:54:58.458Z,101479.84
2022-10-05T11:57:53.475Z,101473.34
2022-10-05T12:00:31.679Z,101467.97
2022-10-05T12:03:50.226Z,101465.94
2022-10-05T12:06:44.551Z,101467.59
2022-10-05T12:10:05.636Z,101460.28
2022-10-05T12:13:02.295Z,101467.19
2022-10-05T12:15:37.221Z,101459.91
2022-10-05T12:18:16.093Z,101464.25
2022-10-05T12:20:54.765Z,101456.28
2022-10-05T12:23:44.886Z,101448.81
2022-10-05T12:26:40.897Z,101453.25
2022-10-05T12:29:39.311Z,101451.28
2022-10-05T12:32:21.186Z,101442.88
2022-10-05T12:35:04.521Z,101439.00
2022-10-05T12:38:05.189Z,101433.13
2022-10-05T12:40:51.569Z,101429.44
2022-10-05T12:43:53.703Z,101442.47
2022-10-05T12:46:38.487Z,101431.19
2022-10-05T12:49:36.446Z,101440.00
2022-10-05T12:52:24.480Z,101438.94
2022-10-05T12:55:16.126Z,101438.84
2022-10-05T12:58:02.069Z,101436.22
2022-10-05T13:00:35.847Z,101442.34
2022-10-05T13:03:18.172Z,101431.63
2022-10-05T13:05:56.940Z,101438.78
2022-10-05T13:08:50.580Z,101430.97
2022-10-05T13:11:52.939Z,101429.97
2022-10-05T13:15:04.261Z,101435.38
2022-10-05T13:18:06.308Z,101433.53
2022-10-05T13:21:04.460Z,101428.44
2022-10-05T13:23:40.772Z,101426.44
2022-10-05T13:26:14.850Z,101428.34
2022-10-05T13:29:09.338Z,101423.19
2022-10-05T13:34:50.240Z,101427.44
2022-10-05T13:37:43.240Z,101436.22
2022-10-05T13:40:53.717Z,101425.28
2022-10-05T13:43:39.962Z,101435.28
2022-10-05T13:46:42.875Z,101433.97
2022-10-05T13:49:37.931Z,101427.63
2022-10-05T13:52:53.971Z,101423.56
2022-10-05T13:55:54.316Z,101427.91
2022-10-05T13:58:36.665Z,101420.34
2022-10-05T14:01:41.588Z,101418.28
2022-10-05T14:04:25.412Z,101412.38
2022-10-05T14:06:52.810Z,101421.06
2022-10-05T14:09:29.552Z,101432.72
2022-10-05T14:12:11.071Z,101421.16
2022-10-05T14:14:53.414Z,101426.22
2022-10-05T14:17:40.698Z,101428.28
2022-10-05T14:20:28.944Z,101426.00
2022-10-05T14:23:05.814Z,101424.47
2022-10-05T14:25:53.675Z,101428.44
2022-10-05T14:28:32.751Z,101427.41
2022-10-05T14:31:48.470Z,101424.28
2022-10-05T14:34:35.664Z,101425.41
2022-10-05T14:37:23.516Z,101441.81
2022-10-05T14:39:54.580Z,101454.50
2022-10-05T14:42:28.772Z,101447.88
2022-10-05T14:45:18.179Z,101452.59
2022-10-05T14:48:02.365Z,101451.00
2022-10-05T14:50:31.570Z,101454.19
2022-10-05T14:53:16.688Z,101452.59
2022-10-05T14:56:21.877Z,101446.66
2022-10-05T14:59:25.939Z,101455.59
2022-10-05T15:02:17.387Z,101454.72
2022-10-05T15:05:31.429Z,101466.69
2022-10-05T15:08:24.148Z,101450.38
2022-10-05T15:11:03.323Z,101464.44
2022-10-05T15:13:38.504Z,101455.69
2022-10-05T15:16:21.197Z,101462.50
2022-10-05T15:19:21.637Z,101448.97
2022-10-05T15:22:19.090Z,101459.16
2022-10-05T15:25:03.535Z,101454.75
2022-10-05T15:28:00.122Z,101453.97
2022-10-05T15:30:27.128Z,101452.31
2022-10-05T15:33:15.553Z,101448.75
2022-10-05T15:36:06.325Z,101455.31
2022-10-05T15:38:49.875Z,101461.66
2022-10-05T15:41:52.809Z,101465.28
2022-10-05T15:44:55.215Z,101468.22
2022-10-05T15:47:47.663Z,101448.66
2022-10-05T15:50:39.288Z,101464.97
2022-10-05T15:53:33.135Z,101464.97
2022-10-05T15:56:20.785Z,101458.41
2022-10-05T15:59:17.627Z,101459.59
2022-10-05T16:02:00.864Z,101454.28
2022-10-05T16:05:17.447Z,101464.97
2022-10-05T16:08:11.206Z,101466.88
2022-10-05T16:10:44.370Z,101458.88
2022-10-05T16:13:34.019Z,101458.16
2022-10-05T16:16:51.891Z,101464.59
2022-10-05T16:19:24.859Z,101465.59
2022-10-05T16:22:03.859Z,101469.25
2022-10-05T16:24:42.617Z,101475.41
2022-10-05T16:27:49.740Z,101481.25
2022-10-05T16:30:23.094Z,101490.19
2022-10-05T16:33:05.502Z,101490.41
2022-10-05T16:36:02.809Z,101492.38
2022-10-05T16:39:05.330Z,101486.94
2022-10-05T16:41:57.273Z,101481.69
2022-10-05T16:44:38.891Z,101482.03
2022-10-05T16:47:53.752Z,101493.72
2022-10-05T16:51:19.915Z,101495.53
2022-10-05T16:54:08.423Z,101495.66
2022-10-05T16:57:17.345Z,101491.34
2022-10-05T16:59:59.226Z,101492.22
2022-10-05T17:03:04.819Z,101490.41
2022-10-05T17:06:12.176Z,101507.63
2022-10-05T17:09:16.940Z,101507.63
2022-10-05T17:12:12.132Z,101505.78
2022-10-05T17:15:11.184Z,101508.41
2022-10-05T17:17:58.707Z,101513.94
2022-10-05T17:21:16.596Z,101513.06
2022-10-05T17:24:18.935Z,101504.25
2022-10-05T17:26:45.804Z,101513.19
2022-10-05T17:29:51.635Z,101514.06
2022-10-05T17:32:18.531Z,101510.50
2022-10-05T17:35:00.456Z,101509.56
2022-10-05T17:37:27.273Z,101517.69
2022-10-05T17:39:56.971Z,101527.56
2022-10-05T17:42:28.567Z,101538.31
2022-10-05T17:45:14.572Z,101526.72
2022-10-05T17:48:03.208Z,101540.16
2022-10-05T17:51:02.978Z,101539.13
2022-10-05T17:54:02.226Z,101550.81
2022-10-05T17:56:31.661Z,101547.38
2022-10-05T17:59:03.309Z,101542.00
2022-10-05T18:01:39.538Z,101545.53
2022-10-05T18:04:12.628Z,101552.75
2022-10-05T18:07:04.857Z,101547.19
2022-10-05T18:09:50.294Z,101549.88
2022-10-05T18:12:17.715Z,101542.69
2022-10-05T18:15:00.914Z,101548.94
2022-10-05T18:17:51.262Z,101550.75
2022-10-05T18:20:34.821Z,101560.56
2022-10-05T18:23:07.609Z,101556.13
2022-10-05T18:26:20.363Z,101557.00
2022-10-05T18:29:55.635Z,101569.56
2022-10-05T18:32:47.010Z,101558.81
2022-10-05T18:35:46.620Z,101552.50
2022-10-05T18:38:56.784Z,101561.38
2022-10-05T18:41:40.400Z,101558.63
2022-10-05T18:44:33.713Z,101574.81
2022-10-05T18:47:18.908Z,101579.94
2022-10-05T18:50:27.284Z,101581.94
2022-10-05T18:53:08.477Z,101587.16
2022-10-05T18:56:03.182Z,101585.25
2022-10-05T18:59:18.350Z,101596.81
2022-10-05T19:02:23.990Z,101599.38
2022-10-05T19:05:45.846Z,101601.03
2022-10-05T19:08:19.337Z,101612.50
2022-10-05T19:10:55.357Z,101604.22
2022-10-05T19:13:50.899Z,101619.56
2022-10-05T19:17:07.698Z,101607.66
2022-10-05T19:20:05.172Z,101612.16
2022-10-05T19:22:56.925Z,101631.84
2022-10-05T19:25:36.763Z,101630.03
2022-10-05T19:28:37.492Z,101630.88
2022-10-05T19:31:30.602Z,101642.50
2022-10-05T19:34:16.495Z,101656.94
2022-10-05T19:36:43.996Z,101660.44
2022-10-05T19:39:45.639Z,101647.88
2022-10-05T19:42:30.274Z,101667.38
2022-10-05T19:45:33.437Z,101698.97
2022-10-05T19:48:21.413Z,101735.97
2022-10-05T19:51:02.146Z,101752.38
2022-10-05T19:53:37.884Z,101755.94
2022-10-05T19:56:25.117Z,101760.16
2022-10-05T19:58:56.395Z,101768.94
2022-10-05T20:01:36.368Z,101762.44
2022-10-05T20:04:04.953Z,101779.41
2022-10-05T20:06:31.873Z,101774.09
2022-10-05T20:09:01.903Z,101782.75
2022-10-05T20:11:29.298Z,101784.25
2022-10-05T20:14:02.377Z,101795.13
2022-10-05T20:16:53.220Z,101795.56
2022-10-05T20:19:54.744Z,101816.25
2022-10-05T20:22:46.321Z,101825.25
2022-10-05T20:25:19.342Z,101833.34
2022-10-05T20:27:51.132Z,101842.56
2022-10-05T20:30:25.104Z,101847.06
2022-10-05T20:33:10.267Z,101843.59
2022-10-05T20:35:37.141Z,101865.34
2022-10-05T20:38:04.013Z,101864.28
2022-10-05T20:40:31.078Z,101849.97
2022-10-05T20:42:58.925Z,101863.31
2022-10-05T20:45:25.941Z,101858.97
2022-10-05T20:47:52.835Z,101864.22
2022-10-05T20:50:22.731Z,101870.47
2022-10-05T20:52:49.739Z,101882.09
2022-10-05T20:55:16.720Z,101880.31
2022-10-05T20:57:45.608Z,101889.94
2022-10-05T21:00:13.515Z,101906.94
2022-10-05T21:02:40.615Z,101910.41
2022-10-05T21:05:08.362Z,101915.75
2022-10-05T21:07:35.607Z,101926.47
2022-10-05T21:10:03.765Z,101939.16
2022-10-05T21:12:32.621Z,101950.84
2022-10-05T21:14:59.780Z,101961.72
2022-10-05T21:17:26.736Z,101953.06
2022-10-05T21:19:53.652Z,101953.44
2022-10-05T21:22:20.537Z,101942.78
2022-10-05T21:24:48.322Z,101938.56
2022-10-05T21:27:15.565Z,101941.63
2022-10-05T21:29:44.007Z,101948.03
2022-10-05T21:32:11.719Z,101947.88
2022-10-05T21:34:40.463Z,101943.41
2022-10-05T21:37:08.702Z,101956.81
2022-10-05T21:39:36.481Z,101951.69
2022-10-05T21:42:03.718Z,101959.72
2022-10-05T21:44:30.612Z,101964.19
2022-10-05T21:46:57.587Z,101960.66
2022-10-05T21:49:25.609Z,101970.50
2022-10-05T21:51:52.642Z,101973.19
2022-10-05T21:54:22.523Z,101975.97
2022-10-05T21:56:53.888Z,101981.47
2022-10-05T21:59:26.351Z,101982.31
2022-10-05T22:01:53.352Z,101992.13
2022-10-05T22:04:20.674Z,102001.97
2022-10-05T22:06:48.894Z,102004.75
2022-10-05T22:09:15.852Z,102008.50
2022-10-05T22:11:45.667Z,102011.19
2022-10-05T22:14:15.516Z,102015.88
2022-10-05T22:16:43.468Z,102018.56
2022-10-05T22:19:18.844Z,102022.34
2022-10-05T22:21:45.745Z,102039.38
2022-10-05T22:24:12.644Z,102037.78
2022-10-05T22:26:42.790Z,102048.50
2022-10-05T22:29:09.890Z,102059.22
2022-10-05T22:31:37.393Z,102061.91
2022-10-05T22:34:04.420Z,102066.44
2022-10-05T22:36:33.164Z,102072.59
2022-10-05T22:39:00.049Z,102075.38
2022-10-05T22:41:26.928Z,102079.06
2022-10-05T22:43:53.797Z,102079.06
2022-10-05T22:46:21.757Z,102090.66
2022-10-05T22:48:48.682Z,102094.22
2022-10-05T22:51:15.577Z,102096.94
2022-10-05T22:53:42.471Z,102107.69
2022-10-05T22:56:14.567Z,102113.00
2022-10-05T22:58:42.895Z,102115.69
2022-10-05T23:01:14.722Z,102120.16
2022-10-05T23:03:42.027Z,102115.81
2022-10-05T23:06:13.304Z,102121.91
2022-10-05T23:08:42.045Z,102118.50
2022-10-05T23:11:13.839Z,102123.81
2022-10-05T23:13:41.528Z,102130.16
2022-10-05T23:16:15.226Z,102135.59
2022-10-05T23:18:43.438Z,102132.94
2022-10-05T23:21:11.511Z,102139.13
2022-10-05T23:23:41.035Z,102138.34
2022-10-05T23:26:11.636Z,102150.78
2022-10-05T23:28:49.132Z,102153.56
2022-10-05T23:31:20.480Z,102155.25
2022-10-05T23:33:48.298Z,102154.38
2022-10-05T23:36:22.036Z,102155.38
2022-10-05T23:38:49.513Z,102162.56
2022-10-05T23:41:17.508Z,102166.94
2022-10-05T23:43:44.474Z,102176.78
2022-10-05T23:46:12.392Z,102179.44
2022-10-05T23:48:40.106Z,102186.56
2022-10-05T23:51:10.550Z,102184.78
2022-10-05T23:53:37.580Z,102195.50
2022-10-05T23:56:05.501Z,102199.97
2022-10-05T23:58:32.632Z,102205.47
